createdAt,value
2022-10-08T00:01:02.272Z,100909.16
2022-10-08T00:03:31.443Z,100901.50
2022-10-08T00:06:14.756Z,100907.00
2022-10-08T00:08:43.434Z,100916.09
2022-10-08T00:11:12.356Z,100914.94
2022-10-08T00:13:41.354Z,100873.63
2022-10-08T00:16:13.737Z,100899.16
2022-10-08T00:18:41.219Z,100893.63
2022-10-08T00:21:14.303Z,100894.00
2022-10-08T00:23:41.525Z,100847.84
2022-10-08T00:26:08.399Z,100666.13
2022-10-08T00:28:36.584Z,100890.22
2022-10-08T00:31:08.227Z,100857.34
2022-10-08T00:33:38.728Z,100881.28
2022-10-08T00:36:07.758Z,100894.16
2022-10-08T00:38:34.801Z,100891.47
2022-10-08T00:41:01.572Z,100855.47
2022-10-08T00:43:46.535Z,100891.31
2022-10-08T00:46:23.097Z,100853.38
2022-10-08T00:48:53.455Z,100890.91
2022-10-08T00:51:19.982Z,100894.56
2022-10-08T00:53:47.115Z,100879.41
2022-10-08T00:56:13.716Z,100900.88
2022-10-08T00:58:41.565Z,100874.59
2022-10-08T01:01:08.584Z,100872.22
2022-10-08T01:03:35.387Z,100888.56
2022-10-08T01:06:22.159Z,100900.06
2022-10-08T01:08:57.832Z,100889.09
2022-10-08T01:11:43.104Z,100861.66
2022-10-08T01:14:20.816Z,100888.53
2022-10-08T01:17:25.803Z,100893.59
2022-10-08T01:20:21.545Z,100898.53
2022-10-08T01:23:13.022Z,100890.53
2022-10-08T01:25:55.757Z,100898.41
2022-10-08T01:28:36.426Z,100885.16
2022-10-08T01:31:23.322Z,100888.69
2022-10-08T01:33:59.028Z,100892.03
2022-10-08T01:36:27.924Z,100860.69
2022-10-08T01:38:57.795Z,100850.72
2022-10-08T01:41:25.738Z,100881.75
2022-10-08T01:44:08.431Z,100853.66
2022-10-08T01:46:37.560Z,100837.59
2022-10-08T01:49:08.091Z,100859.69
2022-10-08T01:51:39.346Z,100877.81
2022-10-08T01:54:08.506Z,100876.84
2022-10-08T01:56:37.150Z,100872.47
2022-10-08T01:59:08.732Z,100880.50
2022-10-08T02:01:40.233Z,100856.63
2022-10-08T02:04:25.605Z,100869.41
2022-10-08T02:06:57.273Z,100877.69
2022-10-08T02:09:27.982Z,100836.19
2022-10-08T02:11:55.102Z,100845.47
2022-10-08T02:14:25.754Z,100872.50
2022-10-08T02:17:03.760Z,100869.44
2022-10-08T02:19:47.084Z,100860.78
2022-10-08T02:22:16.860Z,100819.88
2022-10-08T02:24:48.015Z,100839.47
2022-10-08T02:27:15.413Z,100876.78
2022-10-08T02:29:45.548Z,100875.84
2022-10-08T02:32:31.738Z,100857.03
2022-10-08T02:35:05.393Z,100822.91
2022-10-08T02:37:37.796Z,100869.84
2022-10-08T02:40:11.419Z,100822.25
2022-10-08T02:42:42.012Z,100847.47
2022-10-08T02:45:14.039Z,100800.81
2022-10-08T02:47:42.061Z,100820.25
2022-10-08T02:50:15.714Z,100859.31
2022-10-08T02:52:45.327Z,100849.44
2022-10-08T02:55:22.629Z,100851.69
2022-10-08T02:57:56.843Z,100850.88
2022-10-08T03:00:23.602Z,100854.25
2022-10-08T03:02:58.843Z,100838.38
2022-10-08T03:05:26.434Z,100832.78
2022-10-08T03:07:54.182Z,100852.97
2022-10-08T03:10:25.811Z,100821.50
2022-10-08T03:13:00.262Z,100859.00
2022-10-08T03:15:27.794Z,100855.50
2022-10-08T03:17:54.465Z,100850.44
2022-10-08T03:20:21.329Z,100826.66
2022-10-08T03:22:48.054Z,100853.94
2022-10-08T03:25:14.816Z,100831.75
2022-10-08T03:27:41.710Z,100851.69
2022-10-08T03:30:08.959Z,100832.88
2022-10-08T03:32:35.525Z,100837.94
2022-10-08T03:35:02.425Z,100855.06
2022-10-08T03:37:29.902Z,100863.53
2022-10-08T03:39:56.365Z,100863.88
2022-10-08T03:42:22.845Z,100892.44
2022-10-08T03:44:49.305Z,100871.47
2022-10-08T03:47:15.862Z,100870.81
2022-10-08T03:49:42.427Z,100845.97
2022-10-08T03:52:09.003Z,100836.50
2022-10-08T03:54:36.855Z,100895.78
2022-10-08T03:57:04.031Z,100893.00
2022-10-08T03:59:30.833Z,100892.81
2022-10-08T04:01:57.278Z,100907.81
2022-10-08T04:04:25.751Z,100892.09
2022-10-08T04:06:52.483Z,100897.09
2022-10-08T04:09:19.221Z,100909.00
2022-10-08T04:11:45.717Z,100905.16
2022-10-08T04:14:12.228Z,100863.00
2022-10-08T04:16:39.012Z,100912.19
2022-10-08T04:19:05.786Z,100907.91
2022-10-08T04:21:32.359Z,100913.66
2022-10-08T04:23:58.869Z,100919.16
2022-10-08T04:26:25.615Z,100910.69
2022-10-08T04:28:52.297Z,100907.50
2022-10-08T04:31:21.838Z,100873.13
2022-10-08T04:33:49.728Z,100871.66
2022-10-08T04:36:18.493Z,100927.34
2022-10-08T04:38:45.932Z,100920.53
2022-10-08T04:41:26.170Z,100916.47
2022-10-08T04:43:54.432Z,100866.09
2022-10-08T04:46:22.299Z,100931.59
2022-10-08T04:48:51.631Z,100935.53
2022-10-08T04:51:19.619Z,100930.94
2022-10-08T04:53:46.808Z,100934.97
2022-10-08T04:56:17.103Z,100930.00
2022-10-08T04:58:44.141Z,100917.31
2022-10-08T05:01:12.864Z,100889.06
2022-10-08T05:03:41.633Z,100949.84
2022-10-08T05:06:08.756Z,100888.50
2022-10-08T05:08:35.709Z,100935.22
2022-10-08T05:11:02.537Z,100951.47
2022-10-08T05:13:29.507Z,100956.63
2022-10-08T05:15:56.049Z,100891.47
2022-10-08T05:18:22.920Z,100938.56
2022-10-08T05:20:49.750Z,100954.94
2022-10-08T05:23:16.440Z,100941.97
2022-10-08T05:25:42.947Z,100961.22
2022-10-08T05:28:09.448Z,100927.25
2022-10-08T05:30:36.014Z,100946.38
2022-10-08T05:33:02.605Z,100925.06
2022-10-08T05:35:29.310Z,100935.53
2022-10-08T05:37:55.909Z,100935.38
2022-10-08T05:40:24.182Z,100946.25
2022-10-08T05:42:50.988Z,100975.34
2022-10-08T05:45:17.574Z,100951.88
2022-10-08T05:47:44.106Z,100980.75
2022-10-08T05:50:10.979Z,100938.38
2022-10-08T05:52:37.483Z,100984.53
2022-10-08T05:55:04.847Z,100986.53
2022-10-08T05:57:31.318Z,100994.53
2022-10-08T05:59:58.104Z,101000.28
2022-10-08T06:02:24.640Z,100980.66
2022-10-08T06:04:51.873Z,100989.56
2022-10-08T06:07:18.554Z,100993.56
2022-10-08T06:09:45.196Z,100948.00
2022-10-08T06:12:16.138Z,100949.31
2022-10-08T06:14:42.595Z,101012.75
2022-10-08T06:17:09.239Z,101019.00
2022-10-08T06:19:37.182Z,100886.34
2022-10-08T06:22:04.890Z,100984.84
2022-10-08T06:24:31.761Z,100980.69
2022-10-08T06:26:58.355Z,100994.41
2022-10-08T06:29:24.844Z,100954.66
2022-10-08T06:31:51.917Z,101016.31
2022-10-08T06:34:18.663Z,101017.88
2022-10-08T06:36:45.171Z,101041.63
2022-10-08T06:39:13.820Z,101028.84
2022-10-08T06:41:40.364Z,101033.69
2022-10-08T06:44:09.688Z,101059.13
2022-10-08T06:46:36.220Z,101052.56
2022-10-08T06:49:03.711Z,100939.88
2022-10-08T06:51:30.700Z,101058.38
2022-10-08T06:54:02.796Z,101068.16
2022-10-08T06:56:29.639Z,101062.56
2022-10-08T06:58:56.181Z,101020.66
2022-10-08T07:01:29.027Z,101028.81
2022-10-08T07:04:00.542Z,101083.41
2022-10-08T07:06:27.199Z,101017.16
2022-10-08T07:08:55.691Z,101093.13
2022-10-08T07:11:23.046Z,101086.94
2022-10-08T07:13:49.812Z,101096.66
2022-10-08T07:16:20.500Z,101094.94
2022-10-08T07:18:49.693Z,101094.09
2022-10-08T07:21:17.498Z,101110.63
2022-10-08T07:23:44.506Z,101113.84
2022-10-08T07:26:24.993Z,101102.31
2022-10-08T07:29:05.968Z,101120.56
2022-10-08T07:31:37.878Z,101124.84
2022-10-08T07:34:06.801Z,101085.13
2022-10-08T07:36:33.744Z,101095.22
2022-10-08T07:39:04.211Z,101133.22
2022-10-08T07:41:31.795Z,101126.31
2022-10-08T07:44:00.291Z,101139.50
2022-10-08T07:46:28.286Z,101132.53
2022-10-08T07:48:56.773Z,101097.81
2022-10-08T07:51:23.377Z,101147.53
2022-10-08T07:53:58.958Z,101139.69
2022-10-08T07:56:28.900Z,101135.41
2022-10-08T07:58:55.495Z,101150.88
2022-10-08T08:01:26.457Z,101152.69
2022-10-08T08:03:58.063Z,101145.28
2022-10-08T08:06:24.905Z,101159.38
2022-10-08T08:08:52.138Z,101106.16
2022-10-08T08:11:20.581Z,101169.47
2022-10-08T08:13:47.998Z,101171.72
2022-10-08T08:16:19.560Z,101136.13
2022-10-08T08:18:49.040Z,101186.41
2022-10-08T08:21:21.600Z,101182.25
2022-10-08T08:23:51.026Z,101191.44
2022-10-08T08:26:26.587Z,101157.44
2022-10-08T08:28:55.189Z,101170.50
2022-10-08T08:31:24.225Z,101146.72
2022-10-08T08:33:56.292Z,101199.63
2022-10-08T08:36:31.058Z,101179.22
2022-10-08T08:38:58.090Z,101209.66
2022-10-08T08:41:33.779Z,101212.88
2022-10-08T08:44:02.274Z,101217.41
2022-10-08T08:46:32.651Z,101222.94
2022-10-08T08:49:05.141Z,101215.56
2022-10-08T08:51:31.697Z,101177.56
2022-10-08T08:53:58.261Z,101171.78
2022-10-08T08:56:25.074Z,101203.38
2022-10-08T08:59:00.493Z,101221.66
2022-10-08T09:01:30.101Z,101235.59
2022-10-08T09:03:59.551Z,101234.75
2022-10-08T09:06:26.351Z,101241.47
2022-10-08T09:08:59.559Z,101242.44
2022-10-08T09:11:26.434Z,101248.44
2022-10-08T09:14:31.274Z,101246.09
2022-10-08T09:17:00.787Z,101252.72
2022-10-08T09:19:27.278Z,101263.41
2022-10-08T09:21:53.869Z,101229.84
2022-10-08T09:24:20.508Z,101231.34
2022-10-08T09:26:47.018Z,101276.31
2022-10-08T09:29:32.484Z,101276.53
2022-10-08T09:31:59.188Z,101241.69
2022-10-08T09:34:27.205Z,101256.44
2022-10-08T09:37:03.272Z,101272.84
2022-10-08T09:39:35.694Z,101273.88
2022-10-08T09:42:14.611Z,101277.66
2022-10-08T09:44:48.322Z,101238.88
2022-10-08T09:47:17.511Z,101271.72
2022-10-08T09:49:49.687Z,101216.34
2022-10-08T09:52:27.042Z,101270.50
2022-10-08T09:54:56.460Z,101271.53
2022-10-08T09:57:23.039Z,101257.09
2022-10-08T09:59:54.813Z,101276.13
2022-10-08T10:02:41.490Z,101271.75
2022-10-08T10:05:21.990Z,101210.25
2022-10-08T10:07:48.759Z,101236.41
2022-10-08T10:10:25.986Z,101237.47
2022-10-08T10:12:55.624Z,101286.13
2022-10-08T10:15:24.599Z,101292.56
2022-10-08T10:17:54.487Z,101230.47
2022-10-08T10:20:26.373Z,101270.44
2022-10-08T10:22:55.755Z,101293.34
2022-10-08T10:25:51.375Z,101298.50
2022-10-08T10:28:35.659Z,101303.38
2022-10-08T10:31:12.823Z,101304.16
2022-10-08T10:33:50.011Z,101295.00
2022-10-08T10:36:17.660Z,101293.78
2022-10-08T10:38:53.629Z,101259.97
2022-10-08T10:41:31.636Z,101303.75
2022-10-08T10:44:01.162Z,101306.06
2022-10-08T10:46:37.165Z,101298.94
2022-10-08T10:49:12.680Z,101278.47
2022-10-08T10:52:02.504Z,101308.03
2022-10-08T10:54:36.432Z,101235.78
2022-10-08T10:57:12.251Z,101305.84
2022-10-08T10:59:47.917Z,101302.38
2022-10-08T11:02:26.296Z,101299.09
2022-10-08T11:05:04.357Z,101305.09
2022-10-08T11:07:31.000Z,101306.88
2022-10-08T11:10:11.993Z,101292.88
2022-10-08T11:13:09.445Z,101297.31
2022-10-08T11:15:42.244Z,101277.81
2022-10-08T11:18:27.976Z,101283.53
2022-10-08T11:21:09.211Z,101279.53
2022-10-08T11:23:54.582Z,101291.66
2022-10-08T11:26:28.411Z,101303.44
2022-10-08T11:29:17.432Z,101265.75
2022-10-08T11:31:51.024Z,101284.03
2022-10-08T11:34:37.709Z,101294.94
2022-10-08T11:37:14.233Z,101289.41
2022-10-08T11:40:02.987Z,101294.38
2022-10-08T11:42:46.198Z,101304.94
2022-10-08T11:45:23.270Z,101312.53
2022-10-08T11:47:54.452Z,101321.97
2022-10-08T11:50:41.275Z,101315.81
2022-10-08T11:53:10.889Z,101324.31
2022-10-08T11:55:38.115Z,101314.66
2022-10-08T11:58:08.360Z,101299.75
2022-10-08T12:00:42.089Z,101299.34
2022-10-08T12:03:20.982Z,101289.94
2022-10-08T12:05:51.220Z,101291.28
2022-10-08T12:08:50.867Z,101294.56
2022-10-08T12:11:29.539Z,101286.41
2022-10-08T12:14:11.611Z,101299.44
2022-10-08T12:16:47.516Z,101313.72
2022-10-08T12:19:32.644Z,101308.84
2022-10-08T12:22:00.714Z,101314.81
2022-10-08T12:24:36.907Z,101309.59
2022-10-08T12:27:32.135Z,101305.63
2022-10-08T12:30:12.182Z,101302.63
2022-10-08T12:32:42.236Z,101303.69
2022-10-08T12:35:23.767Z,101309.19
2022-10-08T12:38:07.935Z,101309.72
2022-10-08T12:40:38.323Z,101309.56
2022-10-08T12:43:23.016Z,101311.69
2022-10-08T12:45:59.202Z,101291.72
2022-10-08T12:48:34.905Z,101305.84
2022-10-08T12:51:21.719Z,101313.41
2022-10-08T12:53:48.435Z,101315.63
2022-10-08T12:56:26.051Z,101321.81
2022-10-08T12:58:55.509Z,101277.19
2022-10-08T13:01:22.459Z,101330.88
2022-10-08T13:04:07.595Z,101315.41
2022-10-08T13:06:34.767Z,101315.34
2022-10-08T13:09:01.498Z,101333.94
2022-10-08T13:11:28.192Z,101327.16
2022-10-08T13:13:54.690Z,101309.69
2022-10-08T13:16:22.638Z,101333.78
2022-10-08T13:18:54.280Z,101306.66
2022-10-08T13:21:36.824Z,101334.00
2022-10-08T13:24:13.923Z,101334.13
2022-10-08T13:26:43.323Z,101336.25
2022-10-08T13:29:22.278Z,101350.53
2022-10-08T13:31:56.592Z,101351.75
2022-10-08T13:34:25.689Z,101310.31
2022-10-08T13:36:56.703Z,101346.97
2022-10-08T13:39:48.359Z,101348.00
2022-10-08T13:42:16.867Z,101357.56
2022-10-08T13:44:43.795Z,101355.31
2022-10-08T13:47:18.925Z,101352.72
2022-10-08T13:49:45.999Z,101322.28
2022-10-08T13:52:24.199Z,101339.28
2022-10-08T13:54:54.417Z,101319.25
2022-10-08T13:57:20.888Z,101317.13
2022-10-08T13:59:47.432Z,101355.66
2022-10-08T14:02:14.523Z,101373.66
2022-10-08T14:04:41.331Z,101369.78
2022-10-08T14:07:20.585Z,101347.38
2022-10-08T14:09:47.345Z,101375.53
2022-10-08T14:12:14.286Z,101376.25
2022-10-08T14:14:40.880Z,101372.44
2022-10-08T14:17:07.361Z,101361.56
2022-10-08T14:19:34.094Z,101343.31
2022-10-08T14:22:00.935Z,101396.72
2022-10-08T14:24:27.462Z,101376.94
2022-10-08T14:26:54.115Z,101372.94
2022-10-08T14:29:20.897Z,101392.75
2022-10-08T14:31:47.466Z,101381.75
2022-10-08T14:34:13.958Z,101356.03
2022-10-08T14:36:41.675Z,101363.00
2022-10-08T14:39:09.885Z,101354.97
2022-10-08T14:41:36.844Z,101389.53
2022-10-08T14:44:03.988Z,101392.63
2022-10-08T14:46:30.541Z,101343.03
2022-10-08T14:48:57.115Z,101395.47
2022-10-08T14:51:23.946Z,101382.22
2022-10-08T14:53:51.924Z,101369.16
2022-10-08T14:56:18.585Z,101367.50
2022-10-08T14:58:45.367Z,101364.03
2022-10-08T15:01:12.021Z,101359.66
2022-10-08T15:03:38.672Z,101393.69
2022-10-08T15:06:05.391Z,101392.97
2022-10-08T15:08:32.151Z,101340.38
2022-10-08T15:11:01.654Z,101409.72
2022-10-08T15:13:29.022Z,101412.66
2022-10-08T15:15:55.793Z,101412.41
2022-10-08T15:18:22.443Z,101413.94
2022-10-08T15:20:56.714Z,101417.44
2022-10-08T15:23:24.251Z,101386.69
2022-10-08T15:26:01.357Z,101405.94
2022-10-08T15:28:29.035Z,101380.16
2022-10-08T15:31:03.411Z,101360.25
2022-10-08T15:33:30.106Z,101369.84
2022-10-08T15:35:56.756Z,101358.41
2022-10-08T15:38:23.309Z,101420.56
2022-10-08T15:40:49.854Z,101416.03
2022-10-08T15:43:16.530Z,101358.78
2022-10-08T15:45:43.753Z,101394.41
2022-10-08T15:48:11.953Z,101380.84
2022-10-08T15:50:39.398Z,101374.16
2022-10-08T15:53:07.097Z,101420.50
2022-10-08T15:55:33.773Z,101431.50
2022-10-08T15:58:00.544Z,101384.91
2022-10-08T16:00:27.212Z,101449.31
2022-10-08T16:02:55.277Z,101421.72
2022-10-08T16:05:21.885Z,101436.41
2022-10-08T16:07:48.334Z,101446.41
2022-10-08T16:10:15.020Z,101450.00
2022-10-08T16:12:41.755Z,101414.09
2022-10-08T16:15:09.391Z,101440.56
2022-10-08T16:17:37.150Z,101449.94
2022-10-08T16:20:04.232Z,101487.47
2022-10-08T16:22:30.749Z,101485.59
2022-10-08T16:24:57.218Z,101452.56
2022-10-08T16:27:23.724Z,101488.03
2022-10-08T16:29:50.380Z,101439.19
2022-10-08T16:32:16.857Z,101469.25
2022-10-08T16:34:45.292Z,101492.53
2022-10-08T16:37:12.598Z,101498.63
2022-10-08T16:39:39.013Z,101463.16
2022-10-08T16:42:05.510Z,101460.72
2022-10-08T16:44:31.969Z,101466.31
2022-10-08T16:46:58.587Z,101451.16
2022-10-08T16:49:27.579Z,101466.69
2022-10-08T16:51:59.498Z,101515.28
2022-10-08T16:54:26.550Z,101518.13
2022-10-08T16:56:53.967Z,101466.31
2022-10-08T16:59:23.041Z,101530.84
2022-10-08T17:01:52.979Z,101531.53
2022-10-08T17:04:20.967Z,101484.88
2022-10-08T17:06:47.817Z,101540.16
2022-10-08T17:09:14.333Z,101478.69
2022-10-08T17:11:41.909Z,101521.50
2022-10-08T17:14:10.152Z,101552.63
2022-10-08T17:16:36.767Z,101526.34
2022-10-08T17:19:04.571Z,101565.91
2022-10-08T17:21:32.693Z,101445.84
2022-10-08T17:23:59.945Z,101561.84
2022-10-08T17:26:27.743Z,101574.13
2022-10-08T17:28:54.785Z,101575.53
2022-10-08T17:31:24.595Z,101546.69
2022-10-08T17:33:51.078Z,101565.06
2022-10-08T17:36:30.298Z,101589.94
2022-10-08T17:38:59.095Z,101574.22
2022-10-08T17:41:26.898Z,101553.25
2022-10-08T17:43:55.673Z,101596.59
2022-10-08T17:46:23.889Z,101574.53
2022-10-08T17:48:50.870Z,101594.31
2022-10-08T17:51:20.230Z,101595.41
2022-10-08T17:54:07.391Z,101595.41
2022-10-08T17:56:34.977Z,101599.53
2022-10-08T17:59:01.488Z,101566.75
2022-10-08T18:01:30.574Z,101589.72
2022-10-08T18:03:59.703Z,101608.19
2022-10-08T18:06:26.921Z,101613.41
2022-10-08T18:09:04.485Z,101609.31
2022-10-08T18:11:32.561Z,101597.47
2022-10-08T18:13:59.182Z,101602.34
2022-10-08T18:16:25.894Z,101558.59
2022-10-08T18:18:52.449Z,101622.41
2022-10-08T18:21:19.675Z,101627.47
2022-10-08T18:23:47.137Z,101638.41
2022-10-08T18:26:25.431Z,101639.31
2022-10-08T18:28:54.135Z,101642.84
2022-10-08T18:31:21.947Z,101620.59
2022-10-08T18:33:50.276Z,101649.66
2022-10-08T18:36:19.576Z,101656.53
2022-10-08T18:38:48.013Z,101613.56
2022-10-08T18:41:19.801Z,101665.38
2022-10-08T18:43:47.675Z,101664.84
2022-10-08T18:46:15.757Z,101660.88
2022-10-08T18:48:42.494Z,101669.09
2022-10-08T18:51:11.402Z,101673.34
2022-10-08T18:53:39.711Z,101623.81
2022-10-08T18:56:09.468Z,101675.16
2022-10-08T18:58:36.789Z,101676.84
2022-10-08T19:01:03.588Z,101682.75
2022-10-08T19:03:30.202Z,101665.63
2022-10-08T19:05:56.792Z,101605.97
2022-10-08T19:08:23.427Z,101683.97
2022-10-08T19:10:49.983Z,101671.50
2022-10-08T19:13:16.910Z,101692.63
2022-10-08T19:15:43.643Z,101652.81
2022-10-08T19:18:10.219Z,101666.41
2022-10-08T19:20:36.890Z,101676.00
2022-10-08T19:23:04.119Z,101700.06
2022-10-08T19:25:30.673Z,101663.53
2022-10-08T19:27:57.404Z,101664.84
2022-10-08T19:30:27.389Z,101694.25
2022-10-08T19:32:56.053Z,101700.44
2022-10-08T19:35:22.604Z,101724.50
2022-10-08T19:37:52.206Z,101716.72
2022-10-08T19:40:18.665Z,101726.53
2022-10-08T19:42:45.416Z,101728.41
2022-10-08T19:45:13.414Z,101683.69
2022-10-08T19:47:40.098Z,101728.25
2022-10-08T19:50:06.981Z,101735.78
2022-10-08T19:52:33.511Z,101707.47
2022-10-08T19:55:00.249Z,101710.38
2022-10-08T19:57:26.770Z,101712.09
2022-10-08T19:59:53.830Z,101721.53
2022-10-08T20:02:20.444Z,101696.88
2022-10-08T20:04:47.868Z,101671.25
2022-10-08T20:07:14.438Z,101744.63
2022-10-08T20:09:40.924Z,101717.66
2022-10-08T20:12:07.469Z,101748.53
2022-10-08T20:14:33.965Z,101753.38
2022-10-08T20:17:00.924Z,101758.41
2022-10-08T20:19:27.437Z,101743.41
2022-10-08T20:21:56.929Z,101758.06
2022-10-08T20:24:23.509Z,101716.75
2022-10-08T20:26:50.252Z,101759.66
2022-10-08T20:29:19.348Z,101766.19
2022-10-08T20:31:51.264Z,101743.16
2022-10-08T20:34:19.892Z,101765.34
2022-10-08T20:36:47.731Z,101767.13
2022-10-08T20:39:15.787Z,101765.78
2022-10-08T20:41:42.619Z,101749.34
2022-10-08T20:44:09.293Z,101720.31
2022-10-08T20:46:37.074Z,101771.28
2022-10-08T20:49:04.754Z,101768.97
2022-10-08T20:51:31.908Z,101749.78
2022-10-08T20:54:03.850Z,101773.38
2022-10-08T20:56:37.147Z,101771.22
2022-10-08T20:59:14.804Z,101772.78
2022-10-08T21:01:41.677Z,101765.63
2022-10-08T21:04:08.750Z,101780.66
2022-10-08T21:06:40.487Z,101774.59
2022-10-08T21:09:07.803Z,101776.78
2022-10-08T21:11:34.681Z,101776.41
2022-10-08T21:14:03.415Z,101758.16
2022-10-08T21:16:32.859Z,101787.84
2022-10-08T21:19:01.650Z,101785.75
2022-10-08T21:21:29.468Z,101786.22
2022-10-08T21:23:56.710Z,101792.44
2022-10-08T21:26:24.574Z,101787.66
2022-10-08T21:28:55.169Z,101788.47
2022-10-08T21:31:22.143Z,101791.88
2022-10-08T21:33:50.445Z,101788.84
2022-10-08T21:36:21.297Z,101787.38
2022-10-08T21:38:47.753Z,101738.31
2022-10-08T21:41:16.594Z,101736.06
2022-10-08T21:43:48.869Z,101788.91
2022-10-08T21:46:18.062Z,101788.50
2022-10-08T21:48:44.792Z,101784.94
2022-10-08T21:51:21.792Z,101784.44
2022-10-08T21:53:51.470Z,101794.75
2022-10-08T21:56:20.699Z,101758.94
2022-10-08T21:58:49.419Z,101797.13
2022-10-08T22:01:29.502Z,101803.03
2022-10-08T22:04:01.538Z,101757.47
2022-10-08T22:06:30.709Z,101802.19
2022-10-08T22:08:57.610Z,101789.31
2022-10-08T22:11:25.019Z,101809.41
2022-10-08T22:13:53.642Z,101742.72
2022-10-08T22:16:21.575Z,101754.66
2022-10-08T22:18:48.564Z,101807.25
2022-10-08T22:21:18.621Z,101804.03
2022-10-08T22:23:46.323Z,101804.31
2022-10-08T22:26:19.062Z,101807.94
2022-10-08T22:28:46.104Z,101807.28
2022-10-08T22:31:14.674Z,101799.66
2022-10-08T22:33:41.625Z,101801.97
2022-10-08T22:36:14.341Z,101801.22
2022-10-08T22:38:42.170Z,101798.88
2022-10-08T22:41:14.931Z,101801.63
2022-10-08T22:43:42.312Z,101810.84
2022-10-08T22:46:14.623Z,101737.97
2022-10-08T22:48:41.747Z,101814.03
2022-10-08T22:51:12.864Z,101813.44
2022-10-08T22:53:39.457Z,101776.44
2022-10-08T22:56:07.229Z,101809.34
2022-10-08T22:58:35.192Z,101818.34
2022-10-08T23:01:08.564Z,101759.13
2022-10-08T23:03:35.856Z,101799.09
2022-10-08T23:06:03.936Z,101818.34
2022-10-08T23:08:30.697Z,101756.63
2022-10-08T23:10:58.228Z,101793.31
2022-10-08T23:13:25.128Z,101807.22
2022-10-08T23:16:06.502Z,101806.09
2022-10-08T23:18:35.570Z,101744.63
2022-10-08T23:21:23.143Z,101810.09
2022-10-08T23:23:50.637Z,101816.81
2022-10-08T23:26:17.569Z,101764.91
2022-10-08T23:28:45.206Z,101790.81
2022-10-08T23:31:14.370Z,101809.28
2022-10-08T23:33:43.798Z,101777.25
2022-10-08T23:36:12.243Z,101807.53
2022-10-08T23:38:39.059Z,101764.28
2022-10-08T23:41:07.566Z,101805.53
2022-10-08T23:43:35.972Z,101807.84
2022-10-08T23:46:03.339Z,101798.69
2022-10-08T23:48:29.993Z,101761.94
2022-10-08T23:50:56.905Z,101793.88
2022-10-08T23:53:23.509Z,101806.91
2022-10-08T23:55:50.269Z,101783.53
2022-10-08T23:58:19.706Z,101803.81
